sensor_id;sensor_type;location;lat;lon;timestamp;P1;durP1;ratioP1;P2;durP2;ratioP2
44169;SDS011;29836;52.286;9.576;2023-08-24T00:01:22;4.22;;;2.60;;
44169;SDS011;29836;52.286;9.576;2023-08-24T00:03:48;3.85;;;2.63;;
44169;SDS011;29836;52.286;9.576;2023-08-24T00:06:14;5.63;;;2.63;;
44169;SDS011;29836;52.286;9.576;2023-08-24T00:08:39;7.50;;;3.33;;
44169;SDS011;29836;52.286;9.576;2023-08-24T00:11:05;4.28;;;2.78;;
44169;SDS011;29836;52.286;9.576;2023-08-24T00:13:31;3.67;;;2.42;;
44169;SDS011;29836;52.286;9.576;2023-08-24T00:15:57;5.10;;;3.00;;
44169;SDS011;29836;52.286;9.576;2023-08-24T00:18:22;5.38;;;2.78;;
44169;SDS011;29836;52.286;9.576;2023-08-24T00:20:49;6.13;;;2.97;;
44169;SDS011;29836;52.286;9.576;2023-08-24T00:23:14;5.50;;;3.13;;
44169;SDS011;29836;52.286;9.576;2023-08-24T00:25:41;7.22;;;2.83;;
44169;SDS011;29836;52.286;9.576;2023-08-24T00:28:07;3.20;;;2.38;;
44169;SDS011;29836;52.286;9.576;2023-08-24T00:30:33;5.55;;;2.60;;
44169;SDS011;29836;52.286;9.576;2023-08-24T00:32:58;5.93;;;3.00;;
44169;SDS011;29836;52.286;9.576;2023-08-24T00:35:24;6.47;;;3.45;;
44169;SDS011;29836;52.286;9.576;2023-08-24T00:37:49;4.68;;;3.33;;
44169;SDS011;29836;52.286;9.576;2023-08-24T00:40:15;4.53;;;3.03;;
44169;SDS011;29836;52.286;9.576;2023-08-24T00:42:42;7.07;;;3.47;;
44169;SDS011;29836;52.286;9.576;2023-08-24T00:45:11;6.70;;;3.78;;
44169;SDS011;29836;52.286;9.576;2023-08-24T00:47:42;5.53;;;3.28;;
44169;SDS011;29836;52.286;9.576;2023-08-24T00:50:10;6.00;;;3.42;;
44169;SDS011;29836;52.286;9.576;2023-08-24T00:52:37;6.65;;;3.60;;
44169;SDS011;29836;52.286;9.576;2023-08-24T00:55:05;6.50;;;3.45;;
44169;SDS011;29836;52.286;9.576;2023-08-24T00:57:31;6.45;;;3.45;;
44169;SDS011;29836;52.286;9.576;2023-08-24T00:59:58;5.95;;;3.53;;
44169;SDS011;29836;52.286;9.576;2023-08-24T01:02:24;5.35;;;3.65;;
44169;SDS011;29836;52.286;9.576;2023-08-24T01:04:50;4.72;;;3.42;;
44169;SDS011;29836;52.286;9.576;2023-08-24T01:07:16;7.22;;;3.47;;
44169;SDS011;29836;52.286;9.576;2023-08-24T01:09:43;7.20;;;3.58;;
44169;SDS011;29836;52.286;9.576;2023-08-24T01:12:13;3.58;;;3.13;;
44169;SDS011;29836;52.286;9.576;2023-08-24T01:17:38;8.13;;;3.75;;
44169;SDS011;29836;52.286;9.576;2023-08-24T01:20:07;4.43;;;3.58;;
44169;SDS011;29836;52.286;9.576;2023-08-24T01:27:59;5.45;;;3.35;;
44169;SDS011;29836;52.286;9.576;2023-08-24T01:30:28;6.38;;;4.43;;
44169;SDS011;29836;52.286;9.576;2023-08-24T01:32:55;5.60;;;4.00;;
44169;SDS011;29836;52.286;9.576;2023-08-24T01:35:21;5.22;;;4.22;;
44169;SDS011;29836;52.286;9.576;2023-08-24T01:37:47;6.88;;;4.45;;
44169;SDS011;29836;52.286;9.576;2023-08-24T01:45:16;5.22;;;4.25;;
44169;SDS011;29836;52.286;9.576;2023-08-24T01:47:43;5.63;;;4.72;;
44169;SDS011;29836;52.286;9.576;2023-08-24T01:50:10;7.45;;;4.78;;
44169;SDS011;29836;52.286;9.576;2023-08-24T01:52:36;7.28;;;4.90;;
44169;SDS011;29836;52.286;9.576;2023-08-24T01:55:01;5.68;;;4.45;;
44169;SDS011;29836;52.286;9.576;2023-08-24T01:57:28;9.82;;;4.90;;
44169;SDS011;29836;52.286;9.576;2023-08-24T01:59:53;5.97;;;4.03;;
44169;SDS011;29836;52.286;9.576;2023-08-24T02:02:20;6.47;;;4.45;;
44169;SDS011;29836;52.286;9.576;2023-08-24T02:04:46;6.28;;;4.60;;
44169;SDS011;29836;52.286;9.576;2023-08-24T02:07:11;7.05;;;4.53;;
44169;SDS011;29836;52.286;9.576;2023-08-24T02:09:37;5.93;;;4.75;;
44169;SDS011;29836;52.286;9.576;2023-08-24T02:12:02;6.32;;;4.63;;
44169;SDS011;29836;52.286;9.576;2023-08-24T02:14:28;7.00;;;5.00;;
44169;SDS011;29836;52.286;9.576;2023-08-24T02:16:54;7.20;;;5.38;;
44169;SDS011;29836;52.286;9.576;2023-08-24T02:19:19;7.18;;;4.88;;
44169;SDS011;29836;52.286;9.576;2023-08-24T02:21:45;6.22;;;4.65;;
44169;SDS011;29836;52.286;9.576;2023-08-24T02:24:10;8.27;;;5.22;;
44169;SDS011;29836;52.286;9.576;2023-08-24T02:26:36;5.78;;;4.53;;
44169;SDS011;29836;52.286;9.576;2023-08-24T02:29:01;5.93;;;4.05;;
44169;SDS011;29836;52.286;9.576;2023-08-24T02:31:27;6.82;;;4.85;;
44169;SDS011;29836;52.286;9.576;2023-08-24T02:33:53;6.00;;;4.40;;
44169;SDS011;29836;52.286;9.576;2023-08-24T02:36:19;6.72;;;4.95;;
44169;SDS011;29836;52.286;9.576;2023-08-24T02:38:44;6.97;;;5.65;;
44169;SDS011;29836;52.286;9.576;2023-08-24T02:41:10;8.63;;;5.50;;
44169;SDS011;29836;52.286;9.576;2023-08-24T02:43:36;7.03;;;4.75;;
44169;SDS011;29836;52.286;9.576;2023-08-24T02:46:06;8.30;;;5.85;;
44169;SDS011;29836;52.286;9.576;2023-08-24T02:48:33;8.75;;;5.70;;
44169;SDS011;29836;52.286;9.576;2023-08-24T02:50:59;8.98;;;6.40;;
44169;SDS011;29836;52.286;9.576;2023-08-24T02:53:28;7.68;;;6.10;;
44169;SDS011;29836;52.286;9.576;2023-08-24T02:55:53;9.18;;;5.65;;
44169;SDS011;29836;52.286;9.576;2023-08-24T02:58:19;11.13;;;5.80;;
44169;SDS011;29836;52.286;9.576;2023-08-24T03:00:45;9.68;;;5.50;;
44169;SDS011;29836;52.286;9.576;2023-08-24T03:03:11;9.05;;;5.97;;
44169;SDS011;29836;52.286;9.576;2023-08-24T03:05:41;8.73;;;6.60;;
44169;SDS011;29836;52.286;9.576;2023-08-24T03:08:15;9.15;;;5.32;;
44169;SDS011;29836;52.286;9.576;2023-08-24T03:10:41;6.95;;;5.35;;
44169;SDS011;29836;52.286;9.576;2023-08-24T03:13:06;8.10;;;5.30;;
44169;SDS011;29836;52.286;9.576;2023-08-24T03:15:32;8.48;;;6.82;;
44169;SDS011;29836;52.286;9.576;2023-08-24T03:18:00;10.10;;;6.72;;
44169;SDS011;29836;52.286;9.576;2023-08-24T03:20:25;11.85;;;7.22;;
44169;SDS011;29836;52.286;9.576;2023-08-24T03:22:51;10.18;;;7.43;;
44169;SDS011;29836;52.286;9.576;2023-08-24T03:25:16;10.75;;;7.43;;
44169;SDS011;29836;52.286;9.576;2023-08-24T03:27:42;10.32;;;8.02;;
44169;SDS011;29836;52.286;9.576;2023-08-24T03:30:08;10.02;;;7.38;;
44169;SDS011;29836;52.286;9.576;2023-08-24T03:32:33;11.63;;;7.30;;
44169;SDS011;29836;52.286;9.576;2023-08-24T03:34:59;8.10;;;6.45;;
44169;SDS011;29836;52.286;9.576;2023-08-24T03:37:25;9.00;;;6.85;;
44169;SDS011;29836;52.286;9.576;2023-08-24T03:39:50;8.15;;;6.60;;
44169;SDS011;29836;52.286;9.576;2023-08-24T03:42:16;7.13;;;5.72;;
44169;SDS011;29836;52.286;9.576;2023-08-24T03:44:41;6.88;;;5.75;;
44169;SDS011;29836;52.286;9.576;2023-08-24T03:47:07;7.53;;;5.93;;
44169;SDS011;29836;52.286;9.576;2023-08-24T03:49:33;8.60;;;5.90;;
44169;SDS011;29836;52.286;9.576;2023-08-24T03:51:59;9.93;;;6.07;;
44169;SDS011;29836;52.286;9.576;2023-08-24T03:54:24;6.65;;;5.47;;
44169;SDS011;29836;52.286;9.576;2023-08-24T03:56:50;9.82;;;5.75;;
44169;SDS011;29836;52.286;9.576;2023-08-24T03:59:16;9.45;;;6.68;;
44169;SDS011;29836;52.286;9.576;2023-08-24T04:01:41;7.38;;;6.00;;
44169;SDS011;29836;52.286;9.576;2023-08-24T04:04:07;9.63;;;6.18;;
44169;SDS011;29836;52.286;9.576;2023-08-24T04:06:32;9.75;;;7.03;;
44169;SDS011;29836;52.286;9.576;2023-08-24T04:08:58;8.65;;;6.30;;
44169;SDS011;29836;52.286;9.576;2023-08-24T04:11:23;10.05;;;6.05;;
44169;SDS011;29836;52.286;9.576;2023-08-24T04:13:49;11.45;;;7.25;;
44169;SDS011;29836;52.286;9.576;2023-08-24T04:16:14;8.60;;;6.90;;
44169;SDS011;29836;52.286;9.576;2023-08-24T04:18:40;12.82;;;7.63;;
44169;SDS011;29836;52.286;9.576;2023-08-24T04:21:06;9.10;;;6.72;;
44169;SDS011;29836;52.286;9.576;2023-08-24T04:23:31;8.02;;;6.40;;
44169;SDS011;29836;52.286;9.576;2023-08-24T04:25:57;10.43;;;6.05;;
44169;SDS011;29836;52.286;9.576;2023-08-24T04:28:22;7.45;;;5.47;;
44169;SDS011;29836;52.286;9.576;2023-08-24T04:30:51;8.27;;;5.85;;
44169;SDS011;29836;52.286;9.576;2023-08-24T04:33:18;10.63;;;7.32;;
44169;SDS011;29836;52.286;9.576;2023-08-24T04:35:45;9.57;;;7.22;;
44169;SDS011;29836;52.286;9.576;2023-08-24T04:38:13;9.50;;;7.03;;
44169;SDS011;29836;52.286;9.576;2023-08-24T04:40:49;9.18;;;6.97;;
44169;SDS011;29836;52.286;9.576;2023-08-24T04:43:16;10.10;;;7.80;;
44169;SDS011;29836;52.286;9.576;2023-08-24T04:45:42;9.70;;;7.38;;
44169;SDS011;29836;52.286;9.576;2023-08-24T04:48:07;7.78;;;6.57;;
44169;SDS011;29836;52.286;9.576;2023-08-24T04:50:33;10.20;;;6.68;;
44169;SDS011;29836;52.286;9.576;2023-08-24T04:52:58;8.25;;;6.70;;
44169;SDS011;29836;52.286;9.576;2023-08-24T04:55:24;10.05;;;6.47;;
44169;SDS011;29836;52.286;9.576;2023-08-24T04:57:49;7.25;;;5.80;;
44169;SDS011;29836;52.286;9.576;2023-08-24T05:00:15;7.05;;;5.43;;
44169;SDS011;29836;52.286;9.576;2023-08-24T05:02:42;7.18;;;5.97;;
44169;SDS011;29836;52.286;9.576;2023-08-24T05:05:08;9.30;;;5.78;;
44169;SDS011;29836;52.286;9.576;2023-08-24T05:07:35;6.40;;;4.70;;
44169;SDS011;29836;52.286;9.576;2023-08-24T05:10:02;6.95;;;5.38;;
44169;SDS011;29836;52.286;9.576;2023-08-24T05:12:29;6.45;;;4.43;;
44169;SDS011;29836;52.286;9.576;2023-08-24T05:14:54;6.00;;;4.78;;
44169;SDS011;29836;52.286;9.576;2023-08-24T05:17:20;8.40;;;5.00;;
44169;SDS011;29836;52.286;9.576;2023-08-24T05:19:46;5.90;;;4.55;;
44169;SDS011;29836;52.286;9.576;2023-08-24T05:22:16;6.65;;;5.13;;
44169;SDS011;29836;52.286;9.576;2023-08-24T05:24:41;5.72;;;3.83;;
44169;SDS011;29836;52.286;9.576;2023-08-24T05:27:07;9.23;;;4.65;;
44169;SDS011;29836;52.286;9.576;2023-08-24T05:29:32;6.13;;;4.30;;
44169;SDS011;29836;52.286;9.576;2023-08-24T05:31:58;6.65;;;4.50;;
44169;SDS011;29836;52.286;9.576;2023-08-24T05:34:24;7.97;;;4.28;;
44169;SDS011;29836;52.286;9.576;2023-08-24T05:36:50;11.07;;;5.38;;
44169;SDS011;29836;52.286;9.576;2023-08-24T05:39:15;7.68;;;4.57;;
44169;SDS011;29836;52.286;9.576;2023-08-24T05:41:41;6.18;;;4.10;;
44169;SDS011;29836;52.286;9.576;2023-08-24T05:44:06;5.03;;;3.92;;
44169;SDS011;29836;52.286;9.576;2023-08-24T05:46:32;5.90;;;3.80;;
44169;SDS011;29836;52.286;9.576;2023-08-24T05:48:58;5.88;;;3.90;;
44169;SDS011;29836;52.286;9.576;2023-08-24T05:51:27;6.85;;;4.00;;
44169;SDS011;29836;52.286;9.576;2023-08-24T05:53:53;5.18;;;3.50;;
44169;SDS011;29836;52.286;9.576;2023-08-24T05:56:21;4.65;;;3.58;;
44169;SDS011;29836;52.286;9.576;2023-08-24T05:58:47;3.85;;;3.05;;
44169;SDS011;29836;52.286;9.576;2023-08-24T06:01:13;6.18;;;3.58;;
44169;SDS011;29836;52.286;9.576;2023-08-24T06:03:38;6.18;;;3.55;;
44169;SDS011;29836;52.286;9.576;2023-08-24T06:06:04;6.72;;;3.97;;
44169;SDS011;29836;52.286;9.576;2023-08-24T06:08:30;4.72;;;3.60;;
44169;SDS011;29836;52.286;9.576;2023-08-24T06:10:56;7.55;;;4.20;;
44169;SDS011;29836;52.286;9.576;2023-08-24T06:13:22;6.95;;;3.75;;
44169;SDS011;29836;52.286;9.576;2023-08-24T06:15:47;5.55;;;3.50;;
44169;SDS011;29836;52.286;9.576;2023-08-24T06:18:13;6.97;;;3.60;;
44169;SDS011;29836;52.286;9.576;2023-08-24T06:20:38;6.65;;;3.30;;
44169;SDS011;29836;52.286;9.576;2023-08-24T06:23:04;5.90;;;3.30;;
44169;SDS011;29836;52.286;9.576;2023-08-24T06:25:30;6.50;;;3.15;;
44169;SDS011;29836;52.286;9.576;2023-08-24T06:27:57;4.47;;;3.20;;
44169;SDS011;29836;52.286;9.576;2023-08-24T06:30:23;5.05;;;3.40;;
44169;SDS011;29836;52.286;9.576;2023-08-24T06:32:49;6.95;;;3.03;;
44169;SDS011;29836;52.286;9.576;2023-08-24T06:35:15;6.20;;;3.22;;
44169;SDS011;29836;52.286;9.576;2023-08-24T06:37:41;6.38;;;3.65;;
44169;SDS011;29836;52.286;9.576;2023-08-24T06:40:07;4.78;;;3.45;;
44169;SDS011;29836;52.286;9.576;2023-08-24T06:42:33;5.03;;;3.25;;
44169;SDS011;29836;52.286;9.576;2023-08-24T06:44:59;4.80;;;3.67;;
44169;SDS011;29836;52.286;9.576;2023-08-24T06:47:24;5.55;;;3.80;;
44169;SDS011;29836;52.286;9.576;2023-08-24T06:49:50;5.43;;;3.90;;
44169;SDS011;29836;52.286;9.576;2023-08-24T06:52:16;7.30;;;4.25;;
44169;SDS011;29836;52.286;9.576;2023-08-24T06:54:41;8.10;;;4.10;;
44169;SDS011;29836;52.286;9.576;2023-08-24T06:57:07;5.75;;;4.13;;
44169;SDS011;29836;52.286;9.576;2023-08-24T06:59:32;5.90;;;4.07;;
44169;SDS011;29836;52.286;9.576;2023-08-24T07:01:58;6.40;;;4.40;;
44169;SDS011;29836;52.286;9.576;2023-08-24T07:04:24;7.88;;;4.57;;
44169;SDS011;29836;52.286;9.576;2023-08-24T07:06:51;5.65;;;4.57;;
44169;SDS011;29836;52.286;9.576;2023-08-24T07:09:16;7.13;;;4.70;;
44169;SDS011;29836;52.286;9.576;2023-08-24T07:11:44;5.93;;;4.50;;
44169;SDS011;29836;52.286;9.576;2023-08-24T07:14:09;9.00;;;5.22;;
44169;SDS011;29836;52.286;9.576;2023-08-24T07:16:35;7.38;;;4.55;;
44169;SDS011;29836;52.286;9.576;2023-08-24T07:19:00;7.20;;;4.15;;
44169;SDS011;29836;52.286;9.576;2023-08-24T07:21:27;7.03;;;4.35;;
44169;SDS011;29836;52.286;9.576;2023-08-24T07:23:52;6.20;;;4.25;;
44169;SDS011;29836;52.286;9.576;2023-08-24T07:26:18;6.82;;;4.35;;
44169;SDS011;29836;52.286;9.576;2023-08-24T07:28:44;6.00;;;3.90;;
44169;SDS011;29836;52.286;9.576;2023-08-24T07:31:10;5.38;;;4.30;;
44169;SDS011;29836;52.286;9.576;2023-08-24T07:33:36;5.45;;;4.70;;
44169;SDS011;29836;52.286;9.576;2023-08-24T07:36:05;7.88;;;5.15;;
44169;SDS011;29836;52.286;9.576;2023-08-24T07:38:31;6.75;;;4.53;;
44169;SDS011;29836;52.286;9.576;2023-08-24T07:40:57;5.55;;;4.50;;
44169;SDS011;29836;52.286;9.576;2023-08-24T07:43:23;6.95;;;4.65;;
44169;SDS011;29836;52.286;9.576;2023-08-24T07:45:49;7.25;;;4.50;;
44169;SDS011;29836;52.286;9.576;2023-08-24T07:48:14;6.28;;;5.00;;
44169;SDS011;29836;52.286;9.576;2023-08-24T07:50:40;6.45;;;5.00;;
44169;SDS011;29836;52.286;9.576;2023-08-24T07:53:06;5.50;;;4.63;;
44169;SDS011;29836;52.286;9.576;2023-08-24T07:55:31;6.20;;;5.18;;
44169;SDS011;29836;52.286;9.576;2023-08-24T07:57:57;6.93;;;5.30;;
44169;SDS011;29836;52.286;9.576;2023-08-24T08:00:22;7.25;;;5.22;;
44169;SDS011;29836;52.286;9.576;2023-08-24T08:02:50;6.35;;;5.68;;
44169;SDS011;29836;52.286;9.576;2023-08-24T08:05:16;7.53;;;5.63;;
44169;SDS011;29836;52.286;9.576;2023-08-24T08:07:42;7.18;;;5.20;;
44169;SDS011;29836;52.286;9.576;2023-08-24T08:10:08;6.95;;;5.72;;
44169;SDS011;29836;52.286;9.576;2023-08-24T08:12:34;9.35;;;5.68;;
44169;SDS011;29836;52.286;9.576;2023-08-24T08:15:00;7.95;;;5.57;;
44169;SDS011;29836;52.286;9.576;2023-08-24T08:17:26;7.40;;;5.80;;
44169;SDS011;29836;52.286;9.576;2023-08-24T08:19:55;8.00;;;5.40;;
44169;SDS011;29836;52.286;9.576;2023-08-24T08:22:24;8.05;;;5.53;;
44169;SDS011;29836;52.286;9.576;2023-08-24T08:24:52;5.82;;;5.00;;
44169;SDS011;29836;52.286;9.576;2023-08-24T08:27:21;6.20;;;5.32;;
44169;SDS011;29836;52.286;9.576;2023-08-24T08:29:47;8.30;;;4.80;;
44169;SDS011;29836;52.286;9.576;2023-08-24T08:32:15;5.38;;;4.57;;
44169;SDS011;29836;52.286;9.576;2023-08-24T08:34:41;7.47;;;4.43;;
44169;SDS011;29836;52.286;9.576;2023-08-24T08:37:06;6.05;;;4.57;;
44169;SDS011;29836;52.286;9.576;2023-08-24T08:39:32;4.85;;;3.85;;
44169;SDS011;29836;52.286;9.576;2023-08-24T08:41:58;4.68;;;3.17;;
44169;SDS011;29836;52.286;9.576;2023-08-24T08:44:23;4.78;;;3.50;;
44169;SDS011;29836;52.286;9.576;2023-08-24T08:46:54;5.63;;;3.67;;
44169;SDS011;29836;52.286;9.576;2023-08-24T08:49:22;5.28;;;4.07;;
44169;SDS011;29836;52.286;9.576;2023-08-24T08:51:47;4.35;;;3.60;;
44169;SDS011;29836;52.286;9.576;2023-08-24T08:54:13;4.53;;;3.50;;
44169;SDS011;29836;52.286;9.576;2023-08-24T08:56:39;4.15;;;3.00;;
44169;SDS011;29836;52.286;9.576;2023-08-24T08:59:06;4.97;;;2.88;;
44169;SDS011;29836;52.286;9.576;2023-08-24T09:01:33;4.32;;;2.40;;
44169;SDS011;29836;52.286;9.576;2023-08-24T09:03:58;3.92;;;2.10;;
44169;SDS011;29836;52.286;9.576;2023-08-24T09:06:25;3.25;;;2.30;;
44169;SDS011;29836;52.286;9.576;2023-08-24T09:08:50;3.33;;;2.08;;
44169;SDS011;29836;52.286;9.576;2023-08-24T09:11:17;3.53;;;2.00;;
44169;SDS011;29836;52.286;9.576;2023-08-24T09:13:43;3.58;;;2.10;;
44169;SDS011;29836;52.286;9.576;2023-08-24T09:16:10;4.35;;;2.50;;
44169;SDS011;29836;52.286;9.576;2023-08-24T09:18:41;3.50;;;2.70;;
44169;SDS011;29836;52.286;9.576;2023-08-24T09:21:10;5.00;;;2.60;;
44169;SDS011;29836;52.286;9.576;2023-08-24T09:23:37;4.18;;;2.60;;
44169;SDS011;29836;52.286;9.576;2023-08-24T09:26:07;2.88;;;2.30;;
44169;SDS011;29836;52.286;9.576;2023-08-24T09:28:33;3.97;;;2.47;;
44169;SDS011;29836;52.286;9.576;2023-08-24T09:31:00;2.92;;;2.47;;
44169;SDS011;29836;52.286;9.576;2023-08-24T09:33:26;4.40;;;2.67;;
44169;SDS011;29836;52.286;9.576;2023-08-24T09:35:55;3.13;;;2.58;;
44169;SDS011;29836;52.286;9.576;2023-08-24T09:38:26;3.65;;;2.42;;
44169;SDS011;29836;52.286;9.576;2023-08-24T09:40:53;5.70;;;2.92;;
44169;SDS011;29836;52.286;9.576;2023-08-24T09:43:19;4.15;;;2.95;;
44169;SDS011;29836;52.286;9.576;2023-08-24T09:45:47;5.45;;;3.20;;
44169;SDS011;29836;52.286;9.576;2023-08-24T09:48:17;4.15;;;2.85;;
44169;SDS011;29836;52.286;9.576;2023-08-24T09:50:44;5.07;;;3.55;;
44169;SDS011;29836;52.286;9.576;2023-08-24T09:53:18;5.18;;;3.10;;
44169;SDS011;29836;52.286;9.576;2023-08-24T09:56:00;4.95;;;2.78;;
44169;SDS011;29836;52.286;9.576;2023-08-24T09:58:27;3.70;;;2.90;;
44169;SDS011;29836;52.286;9.576;2023-08-24T10:00:54;3.72;;;2.42;;
44169;SDS011;29836;52.286;9.576;2023-08-24T10:03:24;3.97;;;3.17;;
44169;SDS011;29836;52.286;9.576;2023-08-24T10:05:51;4.65;;;2.78;;
44169;SDS011;29836;52.286;9.576;2023-08-24T10:08:27;5.72;;;2.80;;
44169;SDS011;29836;52.286;9.576;2023-08-24T10:10:57;8.45;;;3.15;;
44169;SDS011;29836;52.286;9.576;2023-08-24T10:13:27;3.53;;;2.78;;
44169;SDS011;29836;52.286;9.576;2023-08-24T10:16:01;4.00;;;2.83;;
44169;SDS011;29836;52.286;9.576;2023-08-24T10:18:29;4.95;;;3.25;;
44169;SDS011;29836;52.286;9.576;2023-08-24T10:20:55;4.05;;;3.22;;
44169;SDS011;29836;52.286;9.576;2023-08-24T10:23:22;3.70;;;3.22;;
44169;SDS011;29836;52.286;9.576;2023-08-24T10:25:49;3.13;;;2.55;;
44169;SDS011;29836;52.286;9.576;2023-08-24T10:28:17;4.25;;;2.80;;
44169;SDS011;29836;52.286;9.576;2023-08-24T10:30:44;3.80;;;2.70;;
44169;SDS011;29836;52.286;9.576;2023-08-24T10:33:12;5.13;;;2.85;;
44169;SDS011;29836;52.286;9.576;2023-08-24T10:35:39;5.72;;;2.45;;
44169;SDS011;29836;52.286;9.576;2023-08-24T10:38:06;4.85;;;2.63;;
44169;SDS011;29836;52.286;9.576;2023-08-24T10:40:35;5.05;;;2.78;;
44169;SDS011;29836;52.286;9.576;2023-08-24T10:43:04;3.22;;;2.80;;
44169;SDS011;29836;52.286;9.576;2023-08-24T10:45:53;4.70;;;2.50;;
44169;SDS011;29836;52.286;9.576;2023-08-24T10:48:23;3.22;;;2.40;;
44169;SDS011;29836;52.286;9.576;2023-08-24T10:53:55;4.47;;;2.60;;
44169;SDS011;29836;52.286;9.576;2023-08-24T10:56:24;4.78;;;2.65;;
44169;SDS011;29836;52.286;9.576;2023-08-24T10:59:11;4.30;;;2.60;;
44169;SDS011;29836;52.286;9.576;2023-08-24T11:01:38;4.32;;;2.45;;
44169;SDS011;29836;52.286;9.576;2023-08-24T11:04:05;4.88;;;2.50;;
44169;SDS011;29836;52.286;9.576;2023-08-24T11:06:34;4.50;;;2.60;;
44169;SDS011;29836;52.286;9.576;2023-08-24T11:09:06;4.43;;;3.00;;
44169;SDS011;29836;52.286;9.576;2023-08-24T11:11:40;4.60;;;2.38;;
44169;SDS011;29836;52.286;9.576;2023-08-24T11:14:18;3.53;;;2.30;;
44169;SDS011;29836;52.286;9.576;2023-08-24T11:16:49;4.63;;;2.55;;
44169;SDS011;29836;52.286;9.576;2023-08-24T11:19:15;4.13;;;2.50;;
44169;SDS011;29836;52.286;9.576;2023-08-24T11:21:44;3.50;;;2.60;;
44169;SDS011;29836;52.286;9.576;2023-08-24T11:24:13;8.32;;;2.75;;
44169;SDS011;29836;52.286;9.576;2023-08-24T11:26:44;3.10;;;2.35;;
44169;SDS011;29836;52.286;9.576;2023-08-24T11:29:11;3.25;;;2.30;;
44169;SDS011;29836;52.286;9.576;2023-08-24T11:31:37;3.75;;;2.30;;
44169;SDS011;29836;52.286;9.576;2023-08-24T11:34:03;5.97;;;2.55;;
44169;SDS011;29836;52.286;9.576;2023-08-24T11:36:40;3.55;;;2.30;;
44169;SDS011;29836;52.286;9.576;2023-08-24T11:39:13;3.88;;;2.33;;
44169;SDS011;29836;52.286;9.576;2023-08-24T11:41:45;3.22;;;2.08;;
44169;SDS011;29836;52.286;9.576;2023-08-24T11:44:46;7.22;;;2.53;;
44169;SDS011;29836;52.286;9.576;2023-08-24T11:47:12;4.07;;;2.42;;
44169;SDS011;29836;52.286;9.576;2023-08-24T11:49:38;4.32;;;2.50;;
44169;SDS011;29836;52.286;9.576;2023-08-24T11:52:04;3.60;;;2.30;;
44169;SDS011;29836;52.286;9.576;2023-08-24T11:54:32;3.03;;;2.20;;
44169;SDS011;29836;52.286;9.576;2023-08-24T11:56:58;4.57;;;2.65;;
44169;SDS011;29836;52.286;9.576;2023-08-24T11:59:23;4.55;;;2.30;;
44169;SDS011;29836;52.286;9.576;2023-08-24T12:01:50;4.55;;;2.30;;
44169;SDS011;29836;52.286;9.576;2023-08-24T12:04:17;4.78;;;2.10;;
44169;SDS011;29836;52.286;9.576;2023-08-24T12:06:43;4.35;;;2.30;;
44169;SDS011;29836;52.286;9.576;2023-08-24T12:09:09;4.05;;;2.33;;
44169;SDS011;29836;52.286;9.576;2023-08-24T12:11:35;3.78;;;2.00;;
44169;SDS011;29836;52.286;9.576;2023-08-24T12:14:01;4.45;;;2.03;;
44169;SDS011;29836;52.286;9.576;2023-08-24T12:16:27;3.92;;;2.28;;
44169;SDS011;29836;52.286;9.576;2023-08-24T12:18:57;3.45;;;2.08;;
44169;SDS011;29836;52.286;9.576;2023-08-24T12:21:25;4.38;;;2.35;;
44169;SDS011;29836;52.286;9.576;2023-08-24T12:23:58;3.58;;;2.10;;
44169;SDS011;29836;52.286;9.576;2023-08-24T12:26:30;3.17;;;2.05;;
44169;SDS011;29836;52.286;9.576;2023-08-24T12:29:07;3.65;;;2.20;;
44169;SDS011;29836;52.286;9.576;2023-08-24T12:31:34;3.03;;;1.80;;
44169;SDS011;29836;52.286;9.576;2023-08-24T12:34:07;3.47;;;2.05;;
44169;SDS011;29836;52.286;9.576;2023-08-24T12:36:37;4.10;;;2.10;;
44169;SDS011;29836;52.286;9.576;2023-08-24T12:39:04;3.10;;;2.10;;
44169;SDS011;29836;52.286;9.576;2023-08-24T12:41:30;3.95;;;2.20;;
44169;SDS011;29836;52.286;9.576;2023-08-24T12:43:56;2.85;;;1.95;;
44169;SDS011;29836;52.286;9.576;2023-08-24T12:46:21;2.92;;;2.03;;
44169;SDS011;29836;52.286;9.576;2023-08-24T12:48:48;3.47;;;2.15;;
44169;SDS011;29836;52.286;9.576;2023-08-24T12:51:15;4.00;;;2.35;;
44169;SDS011;29836;52.286;9.576;2023-08-24T12:53:41;4.40;;;2.10;;
44169;SDS011;29836;52.286;9.576;2023-08-24T12:56:07;3.78;;;2.20;;
44169;SDS011;29836;52.286;9.576;2023-08-24T12:58:32;4.28;;;1.95;;
44169;SDS011;29836;52.286;9.576;2023-08-24T13:00:58;3.22;;;2.00;;
44169;SDS011;29836;52.286;9.576;2023-08-24T13:03:24;3.47;;;2.10;;
44169;SDS011;29836;52.286;9.576;2023-08-24T13:05:50;3.30;;;1.88;;
44169;SDS011;29836;52.286;9.576;2023-08-24T13:08:15;3.08;;;2.05;;
44169;SDS011;29836;52.286;9.576;2023-08-24T13:10:41;5.07;;;1.98;;
44169;SDS011;29836;52.286;9.576;2023-08-24T13:13:07;4.65;;;2.30;;
44169;SDS011;29836;52.286;9.576;2023-08-24T13:15:33;4.43;;;2.30;;
44169;SDS011;29836;52.286;9.576;2023-08-24T13:17:58;4.00;;;2.20;;
44169;SDS011;29836;52.286;9.576;2023-08-24T13:20:24;2.40;;;1.75;;
44169;SDS011;29836;52.286;9.576;2023-08-24T13:22:53;3.83;;;2.08;;
44169;SDS011;29836;52.286;9.576;2023-08-24T13:25:18;4.90;;;2.05;;
44169;SDS011;29836;52.286;9.576;2023-08-24T13:27:44;3.53;;;2.22;;
44169;SDS011;29836;52.286;9.576;2023-08-24T13:30:10;4.72;;;1.83;;
44169;SDS011;29836;52.286;9.576;2023-08-24T13:32:35;3.17;;;2.10;;
44169;SDS011;29836;52.286;9.576;2023-08-24T13:35:02;6.05;;;2.42;;
44169;SDS011;29836;52.286;9.576;2023-08-24T13:37:28;5.68;;;1.92;;
44169;SDS011;29836;52.286;9.576;2023-08-24T13:39:53;3.40;;;2.13;;
44169;SDS011;29836;52.286;9.576;2023-08-24T13:42:19;4.30;;;2.08;;
44169;SDS011;29836;52.286;9.576;2023-08-24T13:44:45;3.75;;;2.08;;
44169;SDS011;29836;52.286;9.576;2023-08-24T13:47:11;3.10;;;2.00;;
44169;SDS011;29836;52.286;9.576;2023-08-24T13:49:37;3.28;;;2.08;;
44169;SDS011;29836;52.286;9.576;2023-08-24T13:52:02;3.28;;;1.90;;
44169;SDS011;29836;52.286;9.576;2023-08-24T13:54:28;2.92;;;1.77;;
44169;SDS011;29836;52.286;9.576;2023-08-24T13:56:55;3.45;;;2.15;;
44169;SDS011;29836;52.286;9.576;2023-08-24T13:59:21;3.95;;;2.08;;
44169;SDS011;29836;52.286;9.576;2023-08-24T14:01:46;3.47;;;2.00;;
44169;SDS011;29836;52.286;9.576;2023-08-24T14:04:12;4.75;;;2.20;;
44169;SDS011;29836;52.286;9.576;2023-08-24T14:06:38;5.85;;;2.30;;
44169;SDS011;29836;52.286;9.576;2023-08-24T14:09:04;5.63;;;2.33;;
44169;SDS011;29836;52.286;9.576;2023-08-24T14:11:30;4.18;;;2.33;;
44169;SDS011;29836;52.286;9.576;2023-08-24T14:13:55;3.88;;;2.10;;
44169;SDS011;29836;52.286;9.576;2023-08-24T14:16:22;4.03;;;2.28;;
44169;SDS011;29836;52.286;9.576;2023-08-24T14:18:47;4.47;;;2.47;;
44169;SDS011;29836;52.286;9.576;2023-08-24T14:23:45;4.40;;;2.33;;
44169;SDS011;29836;52.286;9.576;2023-08-24T14:26:11;7.22;;;2.17;;
44169;SDS011;29836;52.286;9.576;2023-08-24T14:28:47;3.45;;;2.30;;
44169;SDS011;29836;52.286;9.576;2023-08-24T14:31:20;5.40;;;2.20;;
44169;SDS011;29836;52.286;9.576;2023-08-24T14:33:46;3.05;;;2.13;;
44169;SDS011;29836;52.286;9.576;2023-08-24T14:36:12;3.30;;;2.03;;
44169;SDS011;29836;52.286;9.576;2023-08-24T14:38:38;3.33;;;2.05;;
44169;SDS011;29836;52.286;9.576;2023-08-24T14:41:10;3.33;;;1.88;;
44169;SDS011;29836;52.286;9.576;2023-08-24T14:43:40;4.18;;;2.10;;
44169;SDS011;29836;52.286;9.576;2023-08-24T14:46:06;3.13;;;2.00;;
44169;SDS011;29836;52.286;9.576;2023-08-24T14:48:32;4.18;;;2.30;;
44169;SDS011;29836;52.286;9.576;2023-08-24T14:50:58;3.90;;;2.42;;
44169;SDS011;29836;52.286;9.576;2023-08-24T14:53:24;3.97;;;1.92;;
44169;SDS011;29836;52.286;9.576;2023-08-24T14:55:50;2.88;;;1.88;;
44169;SDS011;29836;52.286;9.576;2023-08-24T14:58:17;4.32;;;2.17;;
44169;SDS011;29836;52.286;9.576;2023-08-24T15:00:42;3.38;;;2.00;;
44169;SDS011;29836;52.286;9.576;2023-08-24T15:03:11;2.83;;;1.98;;
44169;SDS011;29836;52.286;9.576;2023-08-24T15:05:37;3.90;;;2.00;;